This is the latest recevied weather packets stored in our database for station/object LZ1NAG-10. If no packets are shown the sender has not sent any weather packets the latest 10 day(s).
| Time | Temp. | Humidity | Pressure | Rain* | Wind** | Luminosity | Snow |
|---|---|---|---|---|---|---|---|
| 1777684603 | -1.11° C | 55% | 1026.3 hPa | - | - | - | - |
| 1777683703 | -1.11° C | 54% | 1026.4 hPa | - | - | - | - |
| 1777682803 | -1.11° C | 55% | 1026.5 hPa | - | - | - | - |
| 1777681903 | -1.67° C | 55% | 1026.8 hPa | - | - | - | - |
| 1777681002 | -1.67° C | 54% | 1026.9 hPa | - | - | - | - |
| 1777680102 | -2.22° C | 55% | 1027.2 hPa | - | - | - | - |
| 1777679202 | -2.22° C | 55% | 1027.2 hPa | - | - | - | - |
| 1777678297 | -2.22° C | 55% | 1027.2 hPa | - | - | - | - |
| 1777677397 | -2.78° C | 55% | 1027.4 hPa | - | - | - | - |
| 1777676497 | -2.78° C | 55% | 1027.3 hPa | - | - | - | - |
| 1777675597 | -2.78° C | 55% | 1027.6 hPa | - | - | - | - |
| 1777674697 | -2.78° C | 55% | 1027.5 hPa | - | - | - | - |
| 1777673797 | -2.22° C | 55% | 1027.4 hPa | - | - | - | - |
| 1777672896 | -2.22° C | 55% | 1027.8 hPa | - | - | - | - |
| 1777671996 | -2.22° C | 55% | 1027.8 hPa | - | - | - | - |
| 1777671096 | -1.67° C | 55% | 1027.7 hPa | - | - | - | - |
| 1777670196 | -1.67° C | 55% | 1027.7 hPa | - | - | - | - |
| 1777669296 | -1.67° C | 55% | 1027.4 hPa | - | - | - | - |
| 1777668395 | -1.67° C | 55% | 1027.6 hPa | - | - | - | - |
| 1777667495 | -1.11° C | 55% | 1027.4 hPa | - | - | - | - |
| 1777666595 | -0.56° C | 55% | 1027.3 hPa | - | - | - | - |
| 1777665695 | -0.56° C | 55% | 1027.3 hPa | - | - | - | - |
| 1777664794 | -1.11° C | 55% | 1027.4 hPa | - | - | - | - |
| 1777663895 | -1.11° C | 55% | 1027.3 hPa | - | - | - | - |
| 1777662994 | -0.56° C | 55% | 1027.3 hPa | - | - | - | - |
* Rain since midnight (hover to see other rain measurements)
** Current wind speed in m/s (hover to see current wind gust speed)